WetterOnline ( https://www.wetteronline.de )

Wetter aktuell Oberpörlitz

Aktuelles Wetter: Schmücke (948m)

6-stündlich | Neueste Meldungen
Ortszeit Temperatur Wetter
Mo, 17.06. 2:00 10.6° C leicht bewölkt
So, 16.06. 20:00 12.1° C Sprühregen
So, 16.06. 14:00 12.8° C leichter Regen
So, 16.06. 8:00 12.8° C bedeckt
So, 16.06. 2:00 12.2° C bewölkt
Sa, 15.06. 20:00 16.7° C wolkig
Sa, 15.06. 14:00 17.9° C wolkig
Sa, 15.06. 8:00 18.7° C leicht bewölkt
Ortszeit Temperatur Wetter
Mo, 17.06. 3:00 9.8° C bedeckt
Mo, 17.06. 2:50 9.8° C bedeckt
Mo, 17.06. 2:40 9.8° C bewölkt
Mo, 17.06. 2:30 9.8° C leicht bewölkt
Mo, 17.06. 2:20 9.8° C leicht bewölkt
Mo, 17.06. 2:10 10.0° C fast wolkenlos
Mo, 17.06. 2:00 10.6° C leicht bewölkt
Mo, 17.06. 1:30 10.9° C wolkenlos
Mo, 17.06. 1:00 11.0° C fast wolkenlos
Mo, 17.06. 0:30 11.2° C wolkig
Mo, 17.06. 0:00 11.1° C bedeckt
Ortszeit Relative Feuchte Sichtweite
Mo, 17.06. 2:00 97% 14 km
So, 16.06. 20:00 94% 14 km
So, 16.06. 14:00 94% 11 km
So, 16.06. 8:00 80% 40 km
So, 16.06. 2:00 86% 40 km
Sa, 15.06. 20:00 68% 60 km
Sa, 15.06. 14:00 68% 55 km
Sa, 15.06. 8:00 70% 35 km
Ortszeit Relative Feuchte Sichtweite
Mo, 17.06. 3:00 95% 40 km
Mo, 17.06. 2:50 95% -
Mo, 17.06. 2:40 95% -
Mo, 17.06. 2:30 95% 30 km
Mo, 17.06. 2:20 95% -
Mo, 17.06. 2:10 95% -
Mo, 17.06. 2:00 97% 14 km
Mo, 17.06. 1:30 97% 5.0 km
Mo, 17.06. 1:00 95% 20 km
Mo, 17.06. 0:30 94% 22 km
Mo, 17.06. 0:00 94% 40 km
Ortszeit Niederschlagsmenge Niederschlagsart
Mo, 17.06. 2:00 0.1 l/m2 in 6 Std. Regen
So, 16.06. 20:00 3 l/m2 in 12 Std. Regen
So, 16.06. 14:00 0.6 l/m2 in 6 Std. Regen
So, 16.06. 8:00 0.0 l/m2 in 12 Std. -
So, 16.06. 2:00 0.0 l/m2 in 6 Std. -
Sa, 15.06. 20:00 0.0 l/m2 in 12 Std. -
Sa, 15.06. 14:00 0.0 l/m2 in 6 Std. -
Sa, 15.06. 8:00 0.0 l/m2 in 12 Std. -
Ortszeit Niederschlagsmenge Niederschlagsart
Mo, 17.06. 3:00 0.0 l/m2 in 1 Std. -
Mo, 17.06. 2:50 keine Meldung -
Mo, 17.06. 2:40 keine Meldung -
Mo, 17.06. 2:30 0.0 l/m2 in 1 Std. -
Mo, 17.06. 2:20 keine Meldung -
Mo, 17.06. 2:10 keine Meldung -
Mo, 17.06. 2:00 0.0 l/m2 in 1 Std. Regen
Mo, 17.06. 1:30 0.0 l/m2 in 1 Std. -
Mo, 17.06. 1:00 0.0 l/m2 in 1 Std. -
Mo, 17.06. 0:30 0.0 l/m2 in 1 Std. -
Mo, 17.06. 0:00 0.0 l/m2 in 1 Std. -
Ortszeit Stärke Spitze Richtung
km/h Bft. km/h Grad Sektor
Mo, 17.06. 2:00 4 1 14 240° SW
So, 16.06. 20:00 4 1 22 60° NO
So, 16.06. 14:00 6 1 22 240° SW
So, 16.06. 8:00 6 1 19 180° S
So, 16.06. 2:00 11 2 22 20° N
Sa, 15.06. 20:00 11 2 54 280° W
Sa, 15.06. 14:00 31 5 70 220° SW
Sa, 15.06. 8:00 22 4 50 210° SW
Ortszeit Stärke Spitze Richtung
km/h Bft. km/h Grad Sektor
Mo, 17.06. 3:00 4 1 4 240° SW
Mo, 17.06. 2:50 4 1 - 240° SW
Mo, 17.06. 2:40 2 1 - 250° W
Mo, 17.06. 2:30 4 1 4 210° SW
Mo, 17.06. 2:20 4 1 - 210° SW
Mo, 17.06. 2:10 4 1 - 210° SW
Mo, 17.06. 2:00 4 1 11 240° SW
Mo, 17.06. 1:30 4 1 11 240° SW
Mo, 17.06. 1:00 4 1 14 230° SW
Mo, 17.06. 0:30 7 2 14 230° SW
Mo, 17.06. 0:00 6 1 11 250° W
Ortszeit Untergrenze Bedeckung Gattung
total tief tief mittel hoch
Mo, 17.06. 2:00 2100 m 4/8 4/8 - - -
So, 16.06. 20:00 1800 m 8/8 8/8 - - -
So, 16.06. 14:00 60 m 8/8 8/8 - - -
So, 16.06. 8:00 1140 m 8/8 8/8 - - -
So, 16.06. 2:00 6900 m 7/8 7/8 - - -
Sa, 15.06. 20:00 870 m 6/8 3/8 - - -
Sa, 15.06. 14:00 690 m 6/8 6/8 - - -
Sa, 15.06. 8:00 6600 m 2/8 2/8 - - -
Ortszeit Bedeckungsgrad in Achtel und Wolkenuntergrenze
Mo, 17.06. 3:00 7(1800m) 8(2100m)
Mo, 17.06. 2:50 7(1800m) 8(2100m)
Mo, 17.06. 2:40 5(1800m) 7(2100m)
Mo, 17.06. 2:30 2(2100m) 5(2100m)
Mo, 17.06. 2:20 2(2100m)
Mo, 17.06. 2:10 1(2100m)
Mo, 17.06. 2:00 4(2100m)
Mo, 17.06. 1:30 keine Wolken
Mo, 17.06. 1:00 1(2400m)
Mo, 17.06. 0:30 5(1800m)
Mo, 17.06. 0:00 7(1800m) 8(2400m)
Ortszeit Stationsdruck (hPa) Tendenz (hPa in 3 Std.)
Mo, 17.06. 2:00 916 + 0,1
So, 16.06. 20:00 915 + 0,1
So, 16.06. 14:00 915 + 0,9
So, 16.06. 8:00 913 + 1,0
So, 16.06. 2:00 911 + 1,0
Sa, 15.06. 20:00 909 0,0
Sa, 15.06. 14:00 908 + 1,8
Sa, 15.06. 8:00 905 + 0,6
Ortszeit Stationsdruck (hPa) Tendenz (hPa in 3 Std.)
Mo, 17.06. 3:00 915 0,0
Mo, 17.06. 2:50 915 keine Meldung
Mo, 17.06. 2:40 916 keine Meldung
Mo, 17.06. 2:30 916 + 0,2
Mo, 17.06. 2:20 916 keine Meldung
Mo, 17.06. 2:10 916 keine Meldung
Mo, 17.06. 2:00 916 + 0,1
Mo, 17.06. 1:30 915 0,0
Mo, 17.06. 1:00 915 0,0
Mo, 17.06. 0:30 915 + 0,2
Mo, 17.06. 0:00 915 + 0,4
Ortszeit Schneehöhe (cm)
Mo, 17.06. 2:00 -
So, 16.06. 20:00 -
So, 16.06. 14:00 -
So, 16.06. 8:00 -
So, 16.06. 2:00 -
Sa, 15.06. 20:00 -
Sa, 15.06. 14:00 -
Sa, 15.06. 8:00 -
Ortszeit Schneehöhe (cm)
Mo, 17.06. 3:00 -
Mo, 17.06. 2:50 -
Mo, 17.06. 2:40 -
Mo, 17.06. 2:30 -
Mo, 17.06. 2:20 -
Mo, 17.06. 2:10 -
Mo, 17.06. 2:00 -
Mo, 17.06. 1:30 -
Mo, 17.06. 1:00 -
Mo, 17.06. 0:30 -
Mo, 17.06. 0:00 -
Link zu dieser Seite / Seite empfehlen

Das Wetter in ...